sensor_id;sensor_type;location;lat;lon;timestamp;pressure;altitude;pressure_sealevel;temperature
69186;BMP280;56298;49.246;9.410;2023-01-01T00:01:11;99631.34;;;10.08
69186;BMP280;56298;49.246;9.410;2023-01-01T00:03:36;99633.28;;;10.08
69186;BMP280;56298;49.246;9.410;2023-01-01T00:06:12;99632.13;;;10.09
69186;BMP280;56298;49.246;9.410;2023-01-01T00:08:38;99641.16;;;10.09
69186;BMP280;56298;49.246;9.410;2023-01-01T00:11:05;99638.53;;;10.13
69186;BMP280;56298;49.246;9.410;2023-01-01T00:13:32;99644.25;;;10.08
69186;BMP280;56298;49.246;9.410;2023-01-01T00:16:12;99637.53;;;10.05
69186;BMP280;56298;49.246;9.410;2023-01-01T00:18:38;99639.47;;;9.92
69186;BMP280;56298;49.246;9.410;2023-01-01T00:21:12;99638.66;;;10.04
69186;BMP280;56298;49.246;9.410;2023-01-01T00:23:38;99643.78;;;10.18
69186;BMP280;56298;49.246;9.410;2023-01-01T00:26:11;99635.44;;;10.27
69186;BMP280;56298;49.246;9.410;2023-01-01T00:28:37;99630.84;;;10.43
69186;BMP280;56298;49.246;9.410;2023-01-01T00:31:08;99634.28;;;10.15
69186;BMP280;56298;49.246;9.410;2023-01-01T00:33:34;99632.97;;;9.97
69186;BMP280;56298;49.246;9.410;2023-01-01T00:36:09;99631.22;;;9.80
69186;BMP280;56298;49.246;9.410;2023-01-01T00:38:35;99623.16;;;9.83
69186;BMP280;56298;49.246;9.410;2023-01-01T00:41:01;99625.09;;;9.95
69186;BMP280;56298;49.246;9.410;2023-01-01T00:43:27;99631.03;;;9.97
69186;BMP280;56298;49.246;9.410;2023-01-01T00:45:52;99627.84;;;9.95
69186;BMP280;56298;49.246;9.410;2023-01-01T00:48:18;99631.22;;;9.67
69186;BMP280;56298;49.246;9.410;2023-01-01T00:50:44;99627.78;;;9.58
69186;BMP280;56298;49.246;9.410;2023-01-01T00:53:09;99629.03;;;9.48
69186;BMP280;56298;49.246;9.410;2023-01-01T00:55:34;99631.09;;;9.64
69186;BMP280;56298;49.246;9.410;2023-01-01T00:58:00;99638.19;;;9.77
69186;BMP280;56298;49.246;9.410;2023-01-01T01:00:25;99639.69;;;9.87
69186;BMP280;56298;49.246;9.410;2023-01-01T01:02:50;99647.91;;;9.87
69186;BMP280;56298;49.246;9.410;2023-01-01T01:05:16;99656.56;;;9.89
69186;BMP280;56298;49.246;9.410;2023-01-01T01:07:41;99648.47;;;9.80
69186;BMP280;56298;49.246;9.410;2023-01-01T01:10:07;99646.03;;;9.66
69186;BMP280;56298;49.246;9.410;2023-01-01T01:12:34;99652.84;;;9.48
69186;BMP280;56298;49.246;9.410;2023-01-01T01:15:00;99646.78;;;9.42
69186;BMP280;56298;49.246;9.410;2023-01-01T01:17:26;99644.03;;;9.29
69186;BMP280;56298;49.246;9.410;2023-01-01T01:19:51;99640.16;;;9.30
69186;BMP280;56298;49.246;9.410;2023-01-01T01:22:16;99639.91;;;9.36
69186;BMP280;56298;49.246;9.410;2023-01-01T01:24:41;99642.59;;;9.11
69186;BMP280;56298;49.246;9.410;2023-01-01T01:27:07;99639.53;;;8.91
69186;BMP280;56298;49.246;9.410;2023-01-01T01:29:32;99636.19;;;8.85
69186;BMP280;56298;49.246;9.410;2023-01-01T01:31:57;99637.44;;;9.09
69186;BMP280;56298;49.246;9.410;2023-01-01T01:34:22;99636.94;;;9.28
69186;BMP280;56298;49.246;9.410;2023-01-01T01:36:48;99644.06;;;9.08
69186;BMP280;56298;49.246;9.410;2023-01-01T01:39:13;99643.53;;;8.94
69186;BMP280;56298;49.246;9.410;2023-01-01T01:41:39;99640.78;;;8.72
69186;BMP280;56298;49.246;9.410;2023-01-01T01:50:05;99650.78;;;9.11
69186;BMP280;56298;49.246;9.410;2023-01-01T01:52:33;99643.06;;;9.25
69186;BMP280;56298;49.246;9.410;2023-01-01T01:55:00;99648.31;;;9.18
69186;BMP280;56298;49.246;9.410;2023-01-01T01:57:26;99651.38;;;9.16
69186;BMP280;56298;49.246;9.410;2023-01-01T01:59:54;99654.13;;;9.16
69186;BMP280;56298;49.246;9.410;2023-01-01T02:02:42;99654.13;;;9.16
69186;BMP280;56298;49.246;9.410;2023-01-01T02:05:09;99645.78;;;8.70
69186;BMP280;56298;49.246;9.410;2023-01-01T02:07:35;99640.56;;;8.56
69186;BMP280;56298;49.246;9.410;2023-01-01T02:10:01;99652.75;;;8.38
69186;BMP280;56298;49.246;9.410;2023-01-01T02:12:27;99652.63;;;8.34
69186;BMP280;56298;49.246;9.410;2023-01-01T02:14:53;99649.69;;;8.39
69186;BMP280;56298;49.246;9.410;2023-01-01T02:20:02;99646.06;;;8.77
69186;BMP280;56298;49.246;9.410;2023-01-01T02:25:22;99650.91;;;8.51
69186;BMP280;56298;49.246;9.410;2023-01-01T02:28:00;99646.63;;;8.41
69186;BMP280;56298;49.246;9.410;2023-01-01T02:30:30;99649.50;;;8.44
69186;BMP280;56298;49.246;9.410;2023-01-01T02:33:03;99649.19;;;8.46
69186;BMP280;56298;49.246;9.410;2023-01-01T02:35:36;99644.69;;;8.62
69186;BMP280;56298;49.246;9.410;2023-01-01T02:40:53;99648.72;;;8.65
69186;BMP280;56298;49.246;9.410;2023-01-01T02:43:20;99654.66;;;8.37
69186;BMP280;56298;49.246;9.410;2023-01-01T02:45:45;99658.41;;;8.32
69186;BMP280;56298;49.246;9.410;2023-01-01T02:48:39;99649.44;;;8.23
69186;BMP280;56298;49.246;9.410;2023-01-01T02:56:36;99637.53;;;8.28
69186;BMP280;56298;49.246;9.410;2023-01-01T03:02:20;99655.00;;;9.08
69186;BMP280;56298;49.246;9.410;2023-01-01T03:05:06;99655.72;;;9.64
69186;BMP280;56298;49.246;9.410;2023-01-01T03:10:40;99667.31;;;9.94
69186;BMP280;56298;49.246;9.410;2023-01-01T03:13:31;99665.94;;;10.00
69186;BMP280;56298;49.246;9.410;2023-01-01T03:16:03;99668.00;;;10.16
69186;BMP280;56298;49.246;9.410;2023-01-01T03:21:09;99667.16;;;10.53
69186;BMP280;56298;49.246;9.410;2023-01-01T03:23:41;99663.25;;;10.66
69186;BMP280;56298;49.246;9.410;2023-01-01T03:26:11;99661.53;;;10.74
69186;BMP280;56298;49.246;9.410;2023-01-01T03:28:43;99673.31;;;10.75
69186;BMP280;56298;49.246;9.410;2023-01-01T03:31:14;99677.19;;;10.74
69186;BMP280;56298;49.246;9.410;2023-01-01T03:33:45;99688.63;;;10.76
69186;BMP280;56298;49.246;9.410;2023-01-01T03:36:14;99689.06;;;10.78
69186;BMP280;56298;49.246;9.410;2023-01-01T03:38:43;99684.13;;;10.83
69186;BMP280;56298;49.246;9.410;2023-01-01T03:41:39;99694.84;;;10.89
69186;BMP280;56298;49.246;9.410;2023-01-01T03:44:11;99685.38;;;10.86
69186;BMP280;56298;49.246;9.410;2023-01-01T03:46:37;99692.91;;;10.89
69186;BMP280;56298;49.246;9.410;2023-01-01T03:49:07;99691.31;;;10.88
69186;BMP280;56298;49.246;9.410;2023-01-01T03:54:35;99680.38;;;10.76
69186;BMP280;56298;49.246;9.410;2023-01-01T04:00:03;99673.72;;;10.77
69186;BMP280;56298;49.246;9.410;2023-01-01T04:02:36;99682.44;;;10.79
69186;BMP280;56298;49.246;9.410;2023-01-01T04:05:04;99682.69;;;10.74
69186;BMP280;56298;49.246;9.410;2023-01-01T04:07:32;99679.81;;;10.70
69186;BMP280;56298;49.246;9.410;2023-01-01T04:09:59;99680.38;;;10.76
69186;BMP280;56298;49.246;9.410;2023-01-01T04:12:25;99685.28;;;10.82
69186;BMP280;56298;49.246;9.410;2023-01-01T04:14:51;99688.84;;;10.83
69186;BMP280;56298;49.246;9.410;2023-01-01T04:17:16;99682.53;;;10.82
69186;BMP280;56298;49.246;9.410;2023-01-01T04:19:42;99685.97;;;10.79
69186;BMP280;56298;49.246;9.410;2023-01-01T04:22:07;99681.16;;;10.76
69186;BMP280;56298;49.246;9.410;2023-01-01T04:24:33;99681.28;;;10.80
69186;BMP280;56298;49.246;9.410;2023-01-01T04:26:58;99685.72;;;10.84
69186;BMP280;56298;49.246;9.410;2023-01-01T04:29:23;99685.28;;;10.82
69186;BMP280;56298;49.246;9.410;2023-01-01T04:31:49;99683.22;;;10.79
69186;BMP280;56298;49.246;9.410;2023-01-01T04:34:15;99683.47;;;10.74
69186;BMP280;56298;49.246;9.410;2023-01-01T04:36:40;99686.56;;;10.73
69186;BMP280;56298;49.246;9.410;2023-01-01T04:39:05;99691.84;;;10.65
69186;BMP280;56298;49.246;9.410;2023-01-01T04:41:31;99690.25;;;10.64
69186;BMP280;56298;49.246;9.410;2023-01-01T04:43:57;99693.31;;;10.63
69186;BMP280;56298;49.246;9.410;2023-01-01T04:46:22;99697.41;;;10.69
69186;BMP280;56298;49.246;9.410;2023-01-01T04:48:48;99689.53;;;10.67
69186;BMP280;56298;49.246;9.410;2023-01-01T04:51:15;99689.25;;;10.56
69186;BMP280;56298;49.246;9.410;2023-01-01T04:53:41;99682.38;;;10.50
69186;BMP280;56298;49.246;9.410;2023-01-01T04:56:11;99693.91;;;10.56
69186;BMP280;56298;49.246;9.410;2023-01-01T04:58:39;99694.34;;;10.58
69186;BMP280;56298;49.246;9.410;2023-01-01T05:01:05;99693.78;;;10.65
69186;BMP280;56298;49.246;9.410;2023-01-01T05:03:31;99688.41;;;10.68
69186;BMP280;56298;49.246;9.410;2023-01-01T05:08:28;99696.31;;;10.57
69186;BMP280;56298;49.246;9.410;2023-01-01T05:10:58;99690.84;;;10.57
69186;BMP280;56298;49.246;9.410;2023-01-01T05:13:24;99702.59;;;10.46
69186;BMP280;56298;49.246;9.410;2023-01-01T05:15:49;99700.09;;;10.40
69186;BMP280;56298;49.246;9.410;2023-01-01T05:18:14;99704.19;;;10.34
69186;BMP280;56298;49.246;9.410;2023-01-01T05:20:40;99702.84;;;10.40
69186;BMP280;56298;49.246;9.410;2023-01-01T05:23:05;99701.47;;;10.47
69186;BMP280;56298;49.246;9.410;2023-01-01T05:25:30;99701.91;;;10.49
69186;BMP280;56298;49.246;9.410;2023-01-01T05:27:55;99704.66;;;10.49
69186;BMP280;56298;49.246;9.410;2023-01-01T05:30:20;99711.38;;;10.51
69186;BMP280;56298;49.246;9.410;2023-01-01T05:32:46;99707.94;;;10.54
69186;BMP280;56298;49.246;9.410;2023-01-01T05:35:11;99705.78;;;10.60
69186;BMP280;56298;49.246;9.410;2023-01-01T05:37:36;99708.88;;;10.59
69186;BMP280;56298;49.246;9.410;2023-01-01T05:40:02;99712.41;;;10.59
69186;BMP280;56298;49.246;9.410;2023-01-01T05:42:27;99708.19;;;10.62
69186;BMP280;56298;49.246;9.410;2023-01-01T05:44:52;99708.38;;;10.69
69186;BMP280;56298;49.246;9.410;2023-01-01T05:47:18;99709.44;;;10.64
69186;BMP280;56298;49.246;9.410;2023-01-01T05:49:45;99710.13;;;10.61
69186;BMP280;56298;49.246;9.410;2023-01-01T05:52:10;99710.34;;;10.68
69186;BMP280;56298;49.246;9.410;2023-01-01T05:54:36;99707.03;;;10.75
69186;BMP280;56298;49.246;9.410;2023-01-01T05:57:01;99712.72;;;10.70
69186;BMP280;56298;49.246;9.410;2023-01-01T05:59:26;99713.31;;;10.76
69186;BMP280;56298;49.246;9.410;2023-01-01T06:01:51;99710.31;;;10.81
69186;BMP280;56298;49.246;9.410;2023-01-01T06:04:17;99708.38;;;10.81
69186;BMP280;56298;49.246;9.410;2023-01-01T06:06:42;99709.53;;;10.80
69186;BMP280;56298;49.246;9.410;2023-01-01T06:09:09;99723.34;;;10.84
69186;BMP280;56298;49.246;9.410;2023-01-01T06:11:34;99729.19;;;10.82
69186;BMP280;56298;49.246;9.410;2023-01-01T06:14:00;99729.19;;;10.82
69186;BMP280;56298;49.246;9.410;2023-01-01T06:16:27;99735.56;;;10.87
69186;BMP280;56298;49.246;9.410;2023-01-01T06:18:52;99735.78;;;10.94
69186;BMP280;56298;49.246;9.410;2023-01-01T06:21:20;99733.16;;;10.97
69186;BMP280;56298;49.246;9.410;2023-01-01T06:23:46;99735.34;;;10.92
69186;BMP280;56298;49.246;9.410;2023-01-01T06:26:14;99741.28;;;10.94
69186;BMP280;56298;49.246;9.410;2023-01-01T06:28:40;99745.28;;;10.96
69186;BMP280;56298;49.246;9.410;2023-01-01T06:31:08;99739.22;;;10.91
69186;BMP280;56298;49.246;9.410;2023-01-01T06:33:33;99740.72;;;10.88
69186;BMP280;56298;49.246;9.410;2023-01-01T06:36:01;99742.78;;;10.79
69186;BMP280;56298;49.246;9.410;2023-01-01T06:38:29;99750.78;;;10.84
69186;BMP280;56298;49.246;9.410;2023-01-01T06:41:00;99746.44;;;10.70
69186;BMP280;56298;49.246;9.410;2023-01-01T06:43:26;99758.91;;;10.68
69186;BMP280;56298;49.246;9.410;2023-01-01T06:46:05;99759.72;;;10.68
69186;BMP280;56298;49.246;9.410;2023-01-01T06:48:33;99745.78;;;10.74
69186;BMP280;56298;49.246;9.410;2023-01-01T06:51:05;99758.91;;;10.68
69186;BMP280;56298;49.246;9.410;2023-01-01T06:53:31;99756.16;;;10.68
69186;BMP280;56298;49.246;9.410;2023-01-01T06:55:56;99754.00;;;10.74
69186;BMP280;56298;49.246;9.410;2023-01-01T06:58:22;99750.53;;;10.77
69186;BMP280;56298;49.246;9.410;2023-01-01T07:00:47;99751.72;;;10.76
69186;BMP280;56298;49.246;9.410;2023-01-01T07:03:12;99751.59;;;10.72
69186;BMP280;56298;49.246;9.410;2023-01-01T07:05:37;99747.78;;;10.77
69186;BMP280;56298;49.246;9.410;2023-01-01T07:08:03;99751.00;;;10.79
69186;BMP280;56298;49.246;9.410;2023-01-01T07:10:28;99759.59;;;10.90
69186;BMP280;56298;49.246;9.410;2023-01-01T07:12:54;99766.97;;;11.02
69186;BMP280;56298;49.246;9.410;2023-01-01T07:15:19;99774.63;;;11.08
69186;BMP280;56298;49.246;9.410;2023-01-01T07:17:44;99775.56;;;11.28
69186;BMP280;56298;49.246;9.410;2023-01-01T07:20:10;99782.31;;;11.31
69186;BMP280;56298;49.246;9.410;2023-01-01T07:22:36;99787.03;;;11.31
69186;BMP280;56298;49.246;9.410;2023-01-01T07:25:03;99788.19;;;11.30
69186;BMP280;56298;49.246;9.410;2023-01-01T07:27:29;99802.25;;;11.28
69186;BMP280;56298;49.246;9.410;2023-01-01T07:29:54;99798.91;;;11.35
69186;BMP280;56298;49.246;9.410;2023-01-01T07:32:19;99795.13;;;11.39
69186;BMP280;56298;49.246;9.410;2023-01-01T07:34:44;99804.25;;;11.44
69186;BMP280;56298;49.246;9.410;2023-01-01T07:37:09;99802.84;;;11.50
69186;BMP280;56298;49.246;9.410;2023-01-01T07:39:35;99808.81;;;11.52
69186;BMP280;56298;49.246;9.410;2023-01-01T07:42:00;99815.75;;;11.62
69186;BMP280;56298;49.246;9.410;2023-01-01T07:44:25;99819.03;;;11.67
69186;BMP280;56298;49.246;9.410;2023-01-01T07:47:00;99823.47;;;11.56
69186;BMP280;56298;49.246;9.410;2023-01-01T07:49:26;99824.81;;;11.50
69186;BMP280;56298;49.246;9.410;2023-01-01T07:51:51;99827.69;;;11.53
69186;BMP280;56298;49.246;9.410;2023-01-01T07:54:16;99830.69;;;11.48
69186;BMP280;56298;49.246;9.410;2023-01-01T07:56:41;99836.19;;;11.48
69186;BMP280;56298;49.246;9.410;2023-01-01T07:59:07;99838.41;;;11.59
69186;BMP280;56298;49.246;9.410;2023-01-01T08:01:34;99847.25;;;11.52
69186;BMP280;56298;49.246;9.410;2023-01-01T08:04:00;99841.63;;;11.61
69186;BMP280;56298;49.246;9.410;2023-01-01T08:06:25;99856.47;;;11.72
69186;BMP280;56298;49.246;9.410;2023-01-01T08:08:51;99849.84;;;11.61
69186;BMP280;56298;49.246;9.410;2023-01-01T08:11:16;99844.97;;;11.54
69186;BMP280;56298;49.246;9.410;2023-01-01T08:13:41;99854.38;;;11.40
69186;BMP280;56298;49.246;9.410;2023-01-01T08:16:07;99854.59;;;11.48
69186;BMP280;56298;49.246;9.410;2023-01-01T08:18:32;99862.84;;;11.35
69186;BMP280;56298;49.246;9.410;2023-01-01T08:20:57;99848.63;;;11.17
69186;BMP280;56298;49.246;9.410;2023-01-01T08:23:22;99867.81;;;11.05
69186;BMP280;56298;49.246;9.410;2023-01-01T08:25:48;99861.78;;;10.87
69186;BMP280;56298;49.246;9.410;2023-01-01T08:28:13;99871.00;;;10.57
69186;BMP280;56298;49.246;9.410;2023-01-01T08:30:39;99878.69;;;10.76
69186;BMP280;56298;49.246;9.410;2023-01-01T08:33:04;99877.97;;;10.79
69186;BMP280;56298;49.246;9.410;2023-01-01T08:35:29;99877.66;;;10.93
69186;BMP280;56298;49.246;9.410;2023-01-01T08:37:54;99884.28;;;10.55
69186;BMP280;56298;49.246;9.410;2023-01-01T08:40:20;99883.13;;;10.56
69186;BMP280;56298;49.246;9.410;2023-01-01T08:42:45;99880.25;;;10.40
69186;BMP280;56298;49.246;9.410;2023-01-01T08:45:10;99886.25;;;10.67
69186;BMP280;56298;49.246;9.410;2023-01-01T08:47:36;99883.00;;;11.02
69186;BMP280;56298;49.246;9.410;2023-01-01T08:50:01;99903.25;;;11.35
69186;BMP280;56298;49.246;9.410;2023-01-01T08:52:26;99894.53;;;11.45
69186;BMP280;56298;49.246;9.410;2023-01-01T08:54:52;99906.88;;;11.51
69186;BMP280;56298;49.246;9.410;2023-01-01T08:57:17;99896.97;;;11.75
69186;BMP280;56298;49.246;9.410;2023-01-01T08:59:42;99904.88;;;12.05
69186;BMP280;56298;49.246;9.410;2023-01-01T09:02:08;99894.38;;;12.23
69186;BMP280;56298;49.246;9.410;2023-01-01T09:04:34;99893.56;;;12.55
69186;BMP280;56298;49.246;9.410;2023-01-01T09:06:59;99893.13;;;12.69
69186;BMP280;56298;49.246;9.410;2023-01-01T09:09:24;99890.53;;;12.76
69186;BMP280;56298;49.246;9.410;2023-01-01T09:11:51;99881.06;;;12.90
69186;BMP280;56298;49.246;9.410;2023-01-01T09:14:17;99882.25;;;13.08
69186;BMP280;56298;49.246;9.410;2023-01-01T09:16:42;99887.66;;;13.21
69186;BMP280;56298;49.246;9.410;2023-01-01T09:19:08;99878.09;;;13.34
69186;BMP280;56298;49.246;9.410;2023-01-01T09:21:33;99882.25;;;13.44
69186;BMP280;56298;49.246;9.410;2023-01-01T09:23:58;99893.94;;;13.57
69186;BMP280;56298;49.246;9.410;2023-01-01T09:26:23;99884.56;;;13.42
69186;BMP280;56298;49.246;9.410;2023-01-01T09:28:49;99888.78;;;13.56
69186;BMP280;56298;49.246;9.410;2023-01-01T09:31:14;99900.75;;;13.63
69186;BMP280;56298;49.246;9.410;2023-01-01T09:33:40;99901.44;;;13.80
69186;BMP280;56298;49.246;9.410;2023-01-01T09:38:51;99910.69;;;13.88
69186;BMP280;56298;49.246;9.410;2023-01-01T09:41:38;99912.03;;;13.98
69186;BMP280;56298;49.246;9.410;2023-01-01T09:46:39;99919.44;;;14.36
69186;BMP280;56298;49.246;9.410;2023-01-01T09:49:24;99913.97;;;14.40
69186;BMP280;56298;49.246;9.410;2023-01-01T09:51:55;99920.19;;;14.84
69186;BMP280;56298;49.246;9.410;2023-01-01T09:54:55;99925.44;;;14.89
69186;BMP280;56298;49.246;9.410;2023-01-01T09:57:27;99925.03;;;14.63
69186;BMP280;56298;49.246;9.410;2023-01-01T09:59:55;99928.06;;;14.81
69186;BMP280;56298;49.246;9.410;2023-01-01T10:02:34;99927.88;;;14.94
69186;BMP280;56298;49.246;9.410;2023-01-01T10:07:49;99928.81;;;15.05
69186;BMP280;56298;49.246;9.410;2023-01-01T10:13:13;99909.28;;;15.21
69186;BMP280;56298;49.246;9.410;2023-01-01T10:15:56;99913.75;;;15.30
69186;BMP280;56298;49.246;9.410;2023-01-01T10:18:26;99910.03;;;15.18
69186;BMP280;56298;49.246;9.410;2023-01-01T10:21:08;99903.97;;;15.36
69186;BMP280;56298;49.246;9.410;2023-01-01T10:23:49;99907.06;;;15.31
69186;BMP280;56298;49.246;9.410;2023-01-01T10:26:17;99915.72;;;15.33
69186;BMP280;56298;49.246;9.410;2023-01-01T10:29:03;99907.91;;;15.35
69186;BMP280;56298;49.246;9.410;2023-01-01T10:31:33;99912.03;;;15.48
69186;BMP280;56298;49.246;9.410;2023-01-01T10:34:02;99908.91;;;15.53
69186;BMP280;56298;49.246;9.410;2023-01-01T10:36:31;99908.94;;;15.57
69186;BMP280;56298;49.246;9.410;2023-01-01T10:38:56;99913.97;;;15.82
69186;BMP280;56298;49.246;9.410;2023-01-01T10:41:21;99902.41;;;15.73
69186;BMP280;56298;49.246;9.410;2023-01-01T10:43:47;99904.63;;;15.94
69186;BMP280;56298;49.246;9.410;2023-01-01T10:46:18;99913.81;;;16.05
69186;BMP280;56298;49.246;9.410;2023-01-01T10:49:08;99905.75;;;16.31
69186;BMP280;56298;49.246;9.410;2023-01-01T10:51:45;99911.41;;;16.45
69186;BMP280;56298;49.246;9.410;2023-01-01T10:56:58;99898.50;;;16.64
69186;BMP280;56298;49.246;9.410;2023-01-01T10:59:41;99900.53;;;16.71
69186;BMP280;56298;49.246;9.410;2023-01-01T11:02:14;99905.72;;;16.79
69186;BMP280;56298;49.246;9.410;2023-01-01T11:04:40;99903.31;;;16.74
69186;BMP280;56298;49.246;9.410;2023-01-01T11:07:06;99899.72;;;16.70
69186;BMP280;56298;49.246;9.410;2023-01-01T11:09:31;99896.28;;;16.84
69186;BMP280;56298;49.246;9.410;2023-01-01T11:12:02;99891.91;;;16.90
69186;BMP280;56298;49.246;9.410;2023-01-01T11:14:37;99893.56;;;16.98
69186;BMP280;56298;49.246;9.410;2023-01-01T11:17:03;99900.78;;;17.18
69186;BMP280;56298;49.246;9.410;2023-01-01T11:19:32;99887.81;;;17.40
69186;BMP280;56298;49.246;9.410;2023-01-01T11:21:58;99892.16;;;17.48
69186;BMP280;56298;49.246;9.410;2023-01-01T11:24:26;99880.31;;;17.48
69186;BMP280;56298;49.246;9.410;2023-01-01T11:26:53;99868.44;;;17.54
69186;BMP280;56298;49.246;9.410;2023-01-01T11:29:35;99868.81;;;17.46
69186;BMP280;56298;49.246;9.410;2023-01-01T11:32:00;99864.50;;;17.66
69186;BMP280;56298;49.246;9.410;2023-01-01T11:34:45;99848.28;;;17.90
69186;BMP280;56298;49.246;9.410;2023-01-01T11:39:44;99840.75;;;17.80
69186;BMP280;56298;49.246;9.410;2023-01-01T11:42:41;99836.00;;;17.88
69186;BMP280;56298;49.246;9.410;2023-01-01T11:45:21;99845.53;;;17.87
69186;BMP280;56298;49.246;9.410;2023-01-01T11:47:58;99836.00;;;17.77
69186;BMP280;56298;49.246;9.410;2023-01-01T11:50:28;99833.22;;;17.77
69186;BMP280;56298;49.246;9.410;2023-01-01T11:52:56;99845.47;;;17.68
69186;BMP280;56298;49.246;9.410;2023-01-01T11:55:42;99837.13;;;17.50
69186;BMP280;56298;49.246;9.410;2023-01-01T11:58:33;99831.63;;;17.61
69186;BMP280;56298;49.246;9.410;2023-01-01T12:01:04;99839.16;;;17.75
69186;BMP280;56298;49.246;9.410;2023-01-01T12:03:39;99837.19;;;17.87
69186;BMP280;56298;49.246;9.410;2023-01-01T12:06:21;99836.78;;;18.06
69186;BMP280;56298;49.246;9.410;2023-01-01T12:08:53;99835.59;;;18.07
69186;BMP280;56298;49.246;9.410;2023-01-01T12:11:28;99834.38;;;18.30
69186;BMP280;56298;49.246;9.410;2023-01-01T12:14:03;99837.16;;;18.37
69186;BMP280;56298;49.246;9.410;2023-01-01T12:16:49;99828.78;;;18.55
69186;BMP280;56298;49.246;9.410;2023-01-01T12:19:25;99830.69;;;18.80
69186;BMP280;56298;49.246;9.410;2023-01-01T12:21:57;99820.25;;;19.10
69186;BMP280;56298;49.246;9.410;2023-01-01T12:24:24;99825.63;;;19.39
69186;BMP280;56298;49.246;9.410;2023-01-01T12:33:08;99807.34;;;19.41
69186;BMP280;56298;49.246;9.410;2023-01-01T12:41:16;99804.84;;;18.91
69186;BMP280;56298;49.246;9.410;2023-01-01T12:44:20;99800.06;;;18.95
69186;BMP280;56298;49.246;9.410;2023-01-01T12:46:55;99812.41;;;18.90
69186;BMP280;56298;49.246;9.410;2023-01-01T12:58:34;99796.22;;;18.56
69186;BMP280;56298;49.246;9.410;2023-01-01T13:01:21;99784.34;;;18.48
69186;BMP280;56298;49.246;9.410;2023-01-01T13:03:57;99781.56;;;18.55
69186;BMP280;56298;49.246;9.410;2023-01-01T13:06:29;99788.25;;;18.65
69186;BMP280;56298;49.246;9.410;2023-01-01T13:09:01;99779.50;;;18.70
69186;BMP280;56298;49.246;9.410;2023-01-01T13:11:29;99783.09;;;18.71
69186;BMP280;56298;49.246;9.410;2023-01-01T13:13:55;99774.72;;;18.78
69186;BMP280;56298;49.246;9.410;2023-01-01T13:16:33;99776.69;;;18.85
69186;BMP280;56298;49.246;9.410;2023-01-01T13:18:59;99773.91;;;18.85
69186;BMP280;56298;49.246;9.410;2023-01-01T13:21:25;99771.94;;;18.78
69186;BMP280;56298;49.246;9.410;2023-01-01T13:23:53;99772.75;;;18.68
69186;BMP280;56298;49.246;9.410;2023-01-01T13:45:25;99779.97;;;18.58
69186;BMP280;56298;49.246;9.410;2023-01-01T13:50:51;99768.09;;;18.47
69186;BMP280;56298;49.246;9.410;2023-01-01T13:59:17;99764.59;;;18.13
69186;BMP280;56298;49.246;9.410;2023-01-01T14:01:55;99765.81;;;18.09
69186;BMP280;56298;49.246;9.410;2023-01-01T14:06:50;99759.88;;;18.03
69186;BMP280;56298;49.246;9.410;2023-01-01T14:09:19;99770.97;;;17.99
69186;BMP280;56298;49.246;9.410;2023-01-01T14:11:44;99763.84;;;17.91
69186;BMP280;56298;49.246;9.410;2023-01-01T14:14:24;99764.22;;;17.93
69186;BMP280;56298;49.246;9.410;2023-01-01T14:16:54;99775.72;;;17.88
69186;BMP280;56298;49.246;9.410;2023-01-01T14:19:22;99771.78;;;17.82
69186;BMP280;56298;49.246;9.410;2023-01-01T14:21:48;99773.75;;;17.74
69186;BMP280;56298;49.246;9.410;2023-01-01T14:24:17;99774.94;;;17.66
69186;BMP280;56298;49.246;9.410;2023-01-01T14:26:43;99785.22;;;17.58
69186;BMP280;56298;49.246;9.410;2023-01-01T14:29:16;99787.63;;;17.52
69186;BMP280;56298;49.246;9.410;2023-01-01T14:31:43;99784.84;;;17.45
69186;BMP280;56298;49.246;9.410;2023-01-01T14:34:31;99787.22;;;17.50
69186;BMP280;56298;49.246;9.410;2023-01-01T14:36:59;99787.22;;;17.54
69186;BMP280;56298;49.246;9.410;2023-01-01T14:39:32;99790.00;;;17.47
69186;BMP280;56298;49.246;9.410;2023-01-01T14:42:06;99787.56;;;17.38
69186;BMP280;56298;49.246;9.410;2023-01-01T14:44:38;99783.22;;;17.26
69186;BMP280;56298;49.246;9.410;2023-01-01T14:47:20;99783.97;;;17.19
69186;BMP280;56298;49.246;9.410;2023-01-01T14:49:47;99787.16;;;17.10
69186;BMP280;56298;49.246;9.410;2023-01-01T14:52:21;99788.31;;;17.13
69186;BMP280;56298;49.246;9.410;2023-01-01T14:54:47;99792.25;;;17.08
69186;BMP280;56298;49.246;9.410;2023-01-01T14:57:16;99781.94;;;16.98
69186;BMP280;56298;49.246;9.410;2023-01-01T14:59:49;99788.22;;;16.88
69186;BMP280;56298;49.246;9.410;2023-01-01T15:02:23;99776.69;;;16.75
69186;BMP280;56298;49.246;9.410;2023-01-01T15:04:49;99787.75;;;16.67
69186;BMP280;56298;49.246;9.410;2023-01-01T15:07:24;99771.09;;;16.60
69186;BMP280;56298;49.246;9.410;2023-01-01T15:09:51;99784.50;;;16.51
69186;BMP280;56298;49.246;9.410;2023-01-01T15:12:18;99777.31;;;16.43
69186;BMP280;56298;49.246;9.410;2023-01-01T15:14:45;99791.53;;;16.37
69186;BMP280;56298;49.246;9.410;2023-01-01T15:17:13;99786.38;;;16.32
69186;BMP280;56298;49.246;9.410;2023-01-01T15:19:40;99786.72;;;16.27
69186;BMP280;56298;49.246;9.410;2023-01-01T15:22:34;99783.06;;;16.16
69186;BMP280;56298;49.246;9.410;2023-01-01T15:25:03;99785.75;;;16.05
69186;BMP280;56298;49.246;9.410;2023-01-01T15:27:32;99784.88;;;15.93
69186;BMP280;56298;49.246;9.410;2023-01-01T15:29:58;99784.88;;;15.90
69186;BMP280;56298;49.246;9.410;2023-01-01T15:32:34;99786.34;;;15.80
69186;BMP280;56298;49.246;9.410;2023-01-01T15:35:03;99786.28;;;15.73
69186;BMP280;56298;49.246;9.410;2023-01-01T15:37:32;99790.56;;;15.66
69186;BMP280;56298;49.246;9.410;2023-01-01T15:50:38;99777.72;;;15.44
69186;BMP280;56298;49.246;9.410;2023-01-01T15:53:14;99772.13;;;15.40
69186;BMP280;56298;49.246;9.410;2023-01-01T15:55:48;99775.31;;;15.42
69186;BMP280;56298;49.246;9.410;2023-01-01T15:58:51;99778.41;;;15.37
69186;BMP280;56298;49.246;9.410;2023-01-01T16:01:22;99777.72;;;15.44
69186;BMP280;56298;49.246;9.410;2023-01-01T16:03:49;99774.53;;;15.42
69186;BMP280;56298;49.246;9.410;2023-01-01T16:06:17;99769.34;;;15.36
69186;BMP280;56298;49.246;9.410;2023-01-01T16:08:43;99772.47;;;15.31
69186;BMP280;56298;49.246;9.410;2023-01-01T16:11:09;99764.78;;;15.17
69186;BMP280;56298;49.246;9.410;2023-01-01T16:13:34;99761.81;;;14.99
69186;BMP280;56298;49.246;9.410;2023-01-01T16:16:01;99764.88;;;14.90
69186;BMP280;56298;49.246;9.410;2023-01-01T16:18:32;99758.09;;;14.57